sensor_id;sensor_type;location;lat;lon;timestamp;P1;durP1;ratioP1;P2;durP2;ratioP2
11197;SDS011;5655;48.744;9.162;2022-08-23T00:00:43;4.32;;;2.75;;
11197;SDS011;5655;48.744;9.162;2022-08-23T00:03:09;3.83;;;2.50;;
11197;SDS011;5655;48.744;9.162;2022-08-23T00:05:34;3.25;;;2.20;;
11197;SDS011;5655;48.744;9.162;2022-08-23T00:08:00;3.17;;;2.63;;
11197;SDS011;5655;48.744;9.162;2022-08-23T00:10:25;4.20;;;2.63;;
11197;SDS011;5655;48.744;9.162;2022-08-23T00:12:52;2.92;;;2.40;;
11197;SDS011;5655;48.744;9.162;2022-08-23T00:15:18;3.97;;;2.80;;
11197;SDS011;5655;48.744;9.162;2022-08-23T00:17:44;6.15;;;2.65;;
11197;SDS011;5655;48.744;9.162;2022-08-23T00:20:12;4.00;;;2.15;;
11197;SDS011;5655;48.744;9.162;2022-08-23T00:22:39;3.10;;;2.25;;
11197;SDS011;5655;48.744;9.162;2022-08-23T00:25:06;6.97;;;2.70;;
11197;SDS011;5655;48.744;9.162;2022-08-23T00:27:33;3.22;;;2.45;;
11197;SDS011;5655;48.744;9.162;2022-08-23T00:29:59;4.63;;;2.60;;
11197;SDS011;5655;48.744;9.162;2022-08-23T00:32:28;5.47;;;2.47;;
11197;SDS011;5655;48.744;9.162;2022-08-23T00:34:57;3.95;;;2.80;;
11197;SDS011;5655;48.744;9.162;2022-08-23T00:37:23;3.75;;;2.47;;
11197;SDS011;5655;48.744;9.162;2022-08-23T00:39:49;4.65;;;2.55;;
11197;SDS011;5655;48.744;9.162;2022-08-23T00:42:25;4.45;;;2.80;;
11197;SDS011;5655;48.744;9.162;2022-08-23T00:45:09;3.75;;;2.70;;
11197;SDS011;5655;48.744;9.162;2022-08-23T00:47:58;4.70;;;2.42;;
11197;SDS011;5655;48.744;9.162;2022-08-23T00:50:36;3.20;;;2.63;;
11197;SDS011;5655;48.744;9.162;2022-08-23T00:53:07;4.32;;;2.83;;
11197;SDS011;5655;48.744;9.162;2022-08-23T00:55:40;3.53;;;2.28;;
11197;SDS011;5655;48.744;9.162;2022-08-23T00:58:08;4.85;;;2.28;;
11197;SDS011;5655;48.744;9.162;2022-08-23T01:00:34;3.97;;;2.60;;
11197;SDS011;5655;48.744;9.162;2022-08-23T01:03:00;3.08;;;2.53;;
11197;SDS011;5655;48.744;9.162;2022-08-23T01:05:29;4.28;;;2.80;;
11197;SDS011;5655;48.744;9.162;2022-08-23T01:08:07;5.38;;;2.42;;
11197;SDS011;5655;48.744;9.162;2022-08-23T01:10:38;4.88;;;2.70;;
11197;SDS011;5655;48.744;9.162;2022-08-23T01:13:08;3.60;;;2.30;;
11197;SDS011;5655;48.744;9.162;2022-08-23T01:15:40;3.70;;;2.50;;
11197;SDS011;5655;48.744;9.162;2022-08-23T01:18:09;3.47;;;2.38;;
11197;SDS011;5655;48.744;9.162;2022-08-23T01:20:40;3.58;;;2.40;;
11197;SDS011;5655;48.744;9.162;2022-08-23T01:23:18;4.53;;;2.40;;
11197;SDS011;5655;48.744;9.162;2022-08-23T01:26:02;4.82;;;2.35;;
11197;SDS011;5655;48.744;9.162;2022-08-23T01:28:28;5.65;;;2.95;;
11197;SDS011;5655;48.744;9.162;2022-08-23T01:30:54;5.57;;;2.58;;
11197;SDS011;5655;48.744;9.162;2022-08-23T01:33:19;4.40;;;2.70;;
11197;SDS011;5655;48.744;9.162;2022-08-23T01:35:50;5.60;;;2.38;;
11197;SDS011;5655;48.744;9.162;2022-08-23T01:38:18;4.15;;;2.50;;
11197;SDS011;5655;48.744;9.162;2022-08-23T01:40:44;4.15;;;2.70;;
11197;SDS011;5655;48.744;9.162;2022-08-23T01:43:10;5.57;;;3.15;;
11197;SDS011;5655;48.744;9.162;2022-08-23T01:45:37;6.40;;;2.78;;
11197;SDS011;5655;48.744;9.162;2022-08-23T01:48:03;6.38;;;2.92;;
11197;SDS011;5655;48.744;9.162;2022-08-23T01:50:28;4.43;;;2.45;;
11197;SDS011;5655;48.744;9.162;2022-08-23T01:52:54;3.53;;;2.75;;
11197;SDS011;5655;48.744;9.162;2022-08-23T01:55:20;4.20;;;2.55;;
11197;SDS011;5655;48.744;9.162;2022-08-23T01:57:46;3.70;;;2.47;;
11197;SDS011;5655;48.744;9.162;2022-08-23T02:00:14;3.63;;;2.28;;
11197;SDS011;5655;48.744;9.162;2022-08-23T02:02:40;6.10;;;2.70;;
11197;SDS011;5655;48.744;9.162;2022-08-23T02:05:05;4.82;;;2.80;;
11197;SDS011;5655;48.744;9.162;2022-08-23T02:07:32;6.10;;;2.63;;
11197;SDS011;5655;48.744;9.162;2022-08-23T02:09:57;4.15;;;2.90;;
11197;SDS011;5655;48.744;9.162;2022-08-23T02:12:23;3.72;;;2.40;;
11197;SDS011;5655;48.744;9.162;2022-08-23T02:14:48;4.18;;;2.60;;
11197;SDS011;5655;48.744;9.162;2022-08-23T02:17:13;7.35;;;2.95;;
11197;SDS011;5655;48.744;9.162;2022-08-23T02:19:40;3.35;;;2.72;;
11197;SDS011;5655;48.744;9.162;2022-08-23T02:22:07;4.13;;;2.33;;
11197;SDS011;5655;48.744;9.162;2022-08-23T02:24:33;3.80;;;2.78;;
11197;SDS011;5655;48.744;9.162;2022-08-23T02:27:00;5.38;;;2.92;;
11197;SDS011;5655;48.744;9.162;2022-08-23T02:29:28;2.60;;;2.33;;
11197;SDS011;5655;48.744;9.162;2022-08-23T02:31:54;4.78;;;2.60;;
11197;SDS011;5655;48.744;9.162;2022-08-23T02:34:20;5.43;;;2.60;;
11197;SDS011;5655;48.744;9.162;2022-08-23T02:36:45;7.28;;;3.08;;
11197;SDS011;5655;48.744;9.162;2022-08-23T02:39:12;6.15;;;2.72;;
11197;SDS011;5655;48.744;9.162;2022-08-23T02:41:38;5.93;;;3.10;;
11197;SDS011;5655;48.744;9.162;2022-08-23T02:44:05;3.75;;;2.70;;
11197;SDS011;5655;48.744;9.162;2022-08-23T02:46:30;4.03;;;3.08;;
11197;SDS011;5655;48.744;9.162;2022-08-23T02:48:56;3.47;;;2.88;;
11197;SDS011;5655;48.744;9.162;2022-08-23T02:51:21;4.13;;;2.83;;
11197;SDS011;5655;48.744;9.162;2022-08-23T02:53:47;2.90;;;2.70;;
11197;SDS011;5655;48.744;9.162;2022-08-23T02:56:12;3.95;;;3.10;;
11197;SDS011;5655;48.744;9.162;2022-08-23T02:58:38;5.50;;;2.92;;
11197;SDS011;5655;48.744;9.162;2022-08-23T03:01:03;5.22;;;2.80;;
11197;SDS011;5655;48.744;9.162;2022-08-23T03:03:29;5.03;;;2.67;;
11197;SDS011;5655;48.744;9.162;2022-08-23T03:05:55;5.53;;;2.92;;
11197;SDS011;5655;48.744;9.162;2022-08-23T03:08:21;4.82;;;2.97;;
11197;SDS011;5655;48.744;9.162;2022-08-23T03:10:48;4.45;;;2.88;;
11197;SDS011;5655;48.744;9.162;2022-08-23T03:13:15;4.22;;;2.47;;
11197;SDS011;5655;48.744;9.162;2022-08-23T03:15:41;4.32;;;2.53;;
11197;SDS011;5655;48.744;9.162;2022-08-23T03:18:07;8.20;;;3.55;;
11197;SDS011;5655;48.744;9.162;2022-08-23T03:20:33;5.53;;;3.30;;
11197;SDS011;5655;48.744;9.162;2022-08-23T03:22:59;4.57;;;3.13;;
11197;SDS011;5655;48.744;9.162;2022-08-23T03:25:24;5.05;;;2.88;;
11197;SDS011;5655;48.744;9.162;2022-08-23T03:27:50;5.07;;;3.00;;
11197;SDS011;5655;48.744;9.162;2022-08-23T03:30:16;6.60;;;2.83;;
11197;SDS011;5655;48.744;9.162;2022-08-23T03:32:41;5.07;;;3.10;;
11197;SDS011;5655;48.744;9.162;2022-08-23T03:35:07;5.35;;;2.90;;
11197;SDS011;5655;48.744;9.162;2022-08-23T03:37:32;4.00;;;2.60;;
11197;SDS011;5655;48.744;9.162;2022-08-23T03:39:58;3.97;;;2.85;;
11197;SDS011;5655;48.744;9.162;2022-08-23T03:42:24;5.22;;;3.00;;
11197;SDS011;5655;48.744;9.162;2022-08-23T03:44:49;4.03;;;2.67;;
11197;SDS011;5655;48.744;9.162;2022-08-23T03:47:15;3.42;;;2.95;;
11197;SDS011;5655;48.744;9.162;2022-08-23T03:49:40;7.28;;;3.00;;
11197;SDS011;5655;48.744;9.162;2022-08-23T03:52:06;3.78;;;2.95;;
11197;SDS011;5655;48.744;9.162;2022-08-23T03:54:33;7.68;;;3.30;;
11197;SDS011;5655;48.744;9.162;2022-08-23T03:57:00;5.80;;;3.38;;
11197;SDS011;5655;48.744;9.162;2022-08-23T03:59:28;6.30;;;2.40;;
11197;SDS011;5655;48.744;9.162;2022-08-23T04:01:55;4.85;;;2.90;;
11197;SDS011;5655;48.744;9.162;2022-08-23T04:04:20;4.20;;;3.00;;
11197;SDS011;5655;48.744;9.162;2022-08-23T04:06:46;4.13;;;3.00;;
11197;SDS011;5655;48.744;9.162;2022-08-23T04:09:12;5.22;;;2.60;;
11197;SDS011;5655;48.744;9.162;2022-08-23T04:11:38;3.13;;;2.75;;
11197;SDS011;5655;48.744;9.162;2022-08-23T04:14:04;4.65;;;3.33;;
11197;SDS011;5655;48.744;9.162;2022-08-23T04:16:30;4.00;;;3.08;;
11197;SDS011;5655;48.744;9.162;2022-08-23T04:19:01;4.45;;;2.90;;
11197;SDS011;5655;48.744;9.162;2022-08-23T04:21:30;7.65;;;2.92;;
11197;SDS011;5655;48.744;9.162;2022-08-23T04:23:56;5.50;;;3.25;;
11197;SDS011;5655;48.744;9.162;2022-08-23T04:26:22;5.13;;;3.30;;
11197;SDS011;5655;48.744;9.162;2022-08-23T04:28:47;6.95;;;3.40;;
11197;SDS011;5655;48.744;9.162;2022-08-23T04:31:13;6.80;;;3.33;;
11197;SDS011;5655;48.744;9.162;2022-08-23T04:33:39;3.28;;;2.95;;
11197;SDS011;5655;48.744;9.162;2022-08-23T04:36:05;4.15;;;3.15;;
11197;SDS011;5655;48.744;9.162;2022-08-23T04:38:31;4.93;;;3.38;;
11197;SDS011;5655;48.744;9.162;2022-08-23T04:40:57;5.35;;;3.53;;
11197;SDS011;5655;48.744;9.162;2022-08-23T04:43:41;4.05;;;3.28;;
11197;SDS011;5655;48.744;9.162;2022-08-23T04:46:08;5.22;;;3.33;;
11197;SDS011;5655;48.744;9.162;2022-08-23T04:48:34;5.90;;;2.90;;
11197;SDS011;5655;48.744;9.162;2022-08-23T04:51:00;4.68;;;3.22;;
11197;SDS011;5655;48.744;9.162;2022-08-23T04:53:25;3.80;;;3.00;;
11197;SDS011;5655;48.744;9.162;2022-08-23T04:55:53;4.75;;;3.10;;
11197;SDS011;5655;48.744;9.162;2022-08-23T04:58:19;4.50;;;2.70;;
11197;SDS011;5655;48.744;9.162;2022-08-23T05:00:47;7.15;;;2.95;;
11197;SDS011;5655;48.744;9.162;2022-08-23T05:03:14;10.45;;;3.15;;
11197;SDS011;5655;48.744;9.162;2022-08-23T05:05:39;5.65;;;2.28;;
11197;SDS011;5655;48.744;9.162;2022-08-23T05:08:05;6.70;;;2.83;;
11197;SDS011;5655;48.744;9.162;2022-08-23T05:10:31;2.95;;;2.50;;
11197;SDS011;5655;48.744;9.162;2022-08-23T05:12:56;3.45;;;2.83;;
11197;SDS011;5655;48.744;9.162;2022-08-23T05:15:22;3.97;;;3.25;;
11197;SDS011;5655;48.744;9.162;2022-08-23T05:17:47;10.35;;;3.15;;
11197;SDS011;5655;48.744;9.162;2022-08-23T05:20:12;5.95;;;3.10;;
11197;SDS011;5655;48.744;9.162;2022-08-23T05:22:39;4.13;;;2.83;;
11197;SDS011;5655;48.744;9.162;2022-08-23T05:25:05;5.80;;;2.72;;
11197;SDS011;5655;48.744;9.162;2022-08-23T05:27:31;3.50;;;2.65;;
11197;SDS011;5655;48.744;9.162;2022-08-23T05:29:56;6.10;;;3.20;;
11197;SDS011;5655;48.744;9.162;2022-08-23T05:32:22;3.78;;;3.13;;
11197;SDS011;5655;48.744;9.162;2022-08-23T05:34:48;6.70;;;3.22;;
11197;SDS011;5655;48.744;9.162;2022-08-23T05:37:13;4.60;;;3.13;;
11197;SDS011;5655;48.744;9.162;2022-08-23T05:39:40;7.05;;;3.05;;
11197;SDS011;5655;48.744;9.162;2022-08-23T05:42:06;4.63;;;3.10;;
11197;SDS011;5655;48.744;9.162;2022-08-23T05:44:33;7.65;;;3.10;;
11197;SDS011;5655;48.744;9.162;2022-08-23T05:46:59;5.57;;;3.60;;
11197;SDS011;5655;48.744;9.162;2022-08-23T05:49:24;6.82;;;3.80;;
11197;SDS011;5655;48.744;9.162;2022-08-23T05:51:50;10.00;;;3.22;;
11197;SDS011;5655;48.744;9.162;2022-08-23T05:54:15;10.50;;;3.70;;
11197;SDS011;5655;48.744;9.162;2022-08-23T05:56:41;8.43;;;3.65;;
11197;SDS011;5655;48.744;9.162;2022-08-23T05:59:09;6.90;;;4.00;;
11197;SDS011;5655;48.744;9.162;2022-08-23T06:01:36;7.85;;;4.20;;
11197;SDS011;5655;48.744;9.162;2022-08-23T06:04:03;8.02;;;3.88;;
11197;SDS011;5655;48.744;9.162;2022-08-23T06:06:31;8.20;;;3.75;;
11197;SDS011;5655;48.744;9.162;2022-08-23T06:08:57;6.95;;;3.00;;
11197;SDS011;5655;48.744;9.162;2022-08-23T06:11:24;5.22;;;3.75;;
11197;SDS011;5655;48.744;9.162;2022-08-23T06:13:59;5.85;;;3.50;;
11197;SDS011;5655;48.744;9.162;2022-08-23T06:16:27;7.05;;;3.65;;
11197;SDS011;5655;48.744;9.162;2022-08-23T06:19:05;6.88;;;3.28;;
11197;SDS011;5655;48.744;9.162;2022-08-23T06:21:31;6.22;;;3.47;;
11197;SDS011;5655;48.744;9.162;2022-08-23T06:23:57;8.20;;;3.25;;
11197;SDS011;5655;48.744;9.162;2022-08-23T06:26:24;4.90;;;3.10;;
11197;SDS011;5655;48.744;9.162;2022-08-23T06:28:53;5.13;;;3.40;;
11197;SDS011;5655;48.744;9.162;2022-08-23T06:31:20;7.65;;;3.50;;
11197;SDS011;5655;48.744;9.162;2022-08-23T06:34:06;7.50;;;3.85;;
11197;SDS011;5655;48.744;9.162;2022-08-23T06:36:33;5.60;;;3.60;;
11197;SDS011;5655;48.744;9.162;2022-08-23T06:39:00;4.70;;;3.10;;
11197;SDS011;5655;48.744;9.162;2022-08-23T06:41:26;7.05;;;3.30;;
11197;SDS011;5655;48.744;9.162;2022-08-23T06:43:51;10.38;;;3.67;;
11197;SDS011;5655;48.744;9.162;2022-08-23T06:46:17;5.50;;;3.30;;
11197;SDS011;5655;48.744;9.162;2022-08-23T06:48:45;4.82;;;3.20;;
11197;SDS011;5655;48.744;9.162;2022-08-23T06:51:19;5.28;;;3.33;;
11197;SDS011;5655;48.744;9.162;2022-08-23T06:53:47;9.77;;;3.38;;
11197;SDS011;5655;48.744;9.162;2022-08-23T06:56:13;6.60;;;3.70;;
11197;SDS011;5655;48.744;9.162;2022-08-23T06:58:39;6.03;;;3.10;;
11197;SDS011;5655;48.744;9.162;2022-08-23T07:03:58;9.48;;;3.00;;
11197;SDS011;5655;48.744;9.162;2022-08-23T07:06:26;8.68;;;3.38;;
11197;SDS011;5655;48.744;9.162;2022-08-23T07:08:52;6.72;;;3.22;;
11197;SDS011;5655;48.744;9.162;2022-08-23T07:11:18;6.15;;;3.45;;
11197;SDS011;5655;48.744;9.162;2022-08-23T07:13:45;6.68;;;3.72;;
11197;SDS011;5655;48.744;9.162;2022-08-23T07:16:11;8.68;;;3.75;;
11197;SDS011;5655;48.744;9.162;2022-08-23T07:18:37;3.97;;;2.90;;
11197;SDS011;5655;48.744;9.162;2022-08-23T07:21:03;4.25;;;3.00;;
11197;SDS011;5655;48.744;9.162;2022-08-23T07:23:30;6.22;;;3.42;;
11197;SDS011;5655;48.744;9.162;2022-08-23T07:25:57;6.68;;;3.53;;
11197;SDS011;5655;48.744;9.162;2022-08-23T07:28:23;5.93;;;3.25;;
11197;SDS011;5655;48.744;9.162;2022-08-23T07:30:49;6.30;;;3.45;;
11197;SDS011;5655;48.744;9.162;2022-08-23T07:33:14;10.07;;;3.65;;
11197;SDS011;5655;48.744;9.162;2022-08-23T07:35:47;7.85;;;2.92;;
11197;SDS011;5655;48.744;9.162;2022-08-23T07:38:14;5.80;;;3.03;;
11197;SDS011;5655;48.744;9.162;2022-08-23T07:40:43;5.82;;;3.30;;
11197;SDS011;5655;48.744;9.162;2022-08-23T07:43:09;6.05;;;3.17;;
11197;SDS011;5655;48.744;9.162;2022-08-23T07:45:35;8.13;;;2.97;;
11197;SDS011;5655;48.744;9.162;2022-08-23T07:48:01;6.40;;;2.80;;
11197;SDS011;5655;48.744;9.162;2022-08-23T07:50:27;4.13;;;3.00;;
11197;SDS011;5655;48.744;9.162;2022-08-23T07:52:53;5.82;;;2.95;;
11197;SDS011;5655;48.744;9.162;2022-08-23T07:55:18;3.50;;;2.90;;
11197;SDS011;5655;48.744;9.162;2022-08-23T07:57:43;5.28;;;3.35;;
11197;SDS011;5655;48.744;9.162;2022-08-23T08:00:09;4.25;;;2.97;;
11197;SDS011;5655;48.744;9.162;2022-08-23T08:02:35;5.65;;;2.80;;
11197;SDS011;5655;48.744;9.162;2022-08-23T08:05:00;4.30;;;2.92;;
11197;SDS011;5655;48.744;9.162;2022-08-23T08:07:26;3.72;;;2.88;;
11197;SDS011;5655;48.744;9.162;2022-08-23T08:09:51;5.47;;;2.75;;
11197;SDS011;5655;48.744;9.162;2022-08-23T08:12:17;5.78;;;2.67;;
11197;SDS011;5655;48.744;9.162;2022-08-23T08:14:43;6.53;;;2.97;;
11197;SDS011;5655;48.744;9.162;2022-08-23T08:17:09;7.75;;;2.95;;
11197;SDS011;5655;48.744;9.162;2022-08-23T08:19:35;9.55;;;2.97;;
11197;SDS011;5655;48.744;9.162;2022-08-23T08:22:01;4.75;;;2.65;;
11197;SDS011;5655;48.744;9.162;2022-08-23T08:24:26;4.50;;;2.90;;
11197;SDS011;5655;48.744;9.162;2022-08-23T08:26:51;4.82;;;2.40;;
11197;SDS011;5655;48.744;9.162;2022-08-23T08:29:17;3.75;;;2.40;;
11197;SDS011;5655;48.744;9.162;2022-08-23T08:31:43;5.50;;;2.60;;
11197;SDS011;5655;48.744;9.162;2022-08-23T08:34:10;4.07;;;2.22;;
11197;SDS011;5655;48.744;9.162;2022-08-23T08:39:05;7.85;;;2.78;;
11197;SDS011;5655;48.744;9.162;2022-08-23T08:47:18;4.85;;;2.05;;
11197;SDS011;5655;48.744;9.162;2022-08-23T08:52:34;4.13;;;2.20;;
11197;SDS011;5655;48.744;9.162;2022-08-23T08:55:07;5.30;;;2.28;;
11197;SDS011;5655;48.744;9.162;2022-08-23T08:57:40;2.58;;;2.10;;
11197;SDS011;5655;48.744;9.162;2022-08-23T09:00:13;4.38;;;2.03;;
11197;SDS011;5655;48.744;9.162;2022-08-23T09:02:42;3.30;;;1.90;;
11197;SDS011;5655;48.744;9.162;2022-08-23T09:05:21;3.45;;;1.98;;
11197;SDS011;5655;48.744;9.162;2022-08-23T09:16:21;3.92;;;1.77;;
11197;SDS011;5655;48.744;9.162;2022-08-23T09:18:58;1.95;;;1.63;;
11197;SDS011;5655;48.744;9.162;2022-08-23T09:21:25;2.35;;;1.63;;
11197;SDS011;5655;48.744;9.162;2022-08-23T09:23:51;4.07;;;1.92;;
11197;SDS011;5655;48.744;9.162;2022-08-23T09:26:22;3.25;;;1.80;;
11197;SDS011;5655;48.744;9.162;2022-08-23T09:28:52;2.13;;;1.90;;
11197;SDS011;5655;48.744;9.162;2022-08-23T09:34:03;6.40;;;1.85;;
11197;SDS011;5655;48.744;9.162;2022-08-23T09:36:36;2.55;;;1.75;;
11197;SDS011;5655;48.744;9.162;2022-08-23T09:39:22;5.50;;;2.20;;
11197;SDS011;5655;48.744;9.162;2022-08-23T09:41:51;2.03;;;1.50;;
11197;SDS011;5655;48.744;9.162;2022-08-23T09:44:38;3.22;;;1.83;;
11197;SDS011;5655;48.744;9.162;2022-08-23T09:47:08;3.28;;;1.75;;
11197;SDS011;5655;48.744;9.162;2022-08-23T09:49:36;2.45;;;1.80;;
11197;SDS011;5655;48.744;9.162;2022-08-23T09:55:02;2.60;;;1.83;;
11197;SDS011;5655;48.744;9.162;2022-08-23T09:57:32;3.95;;;1.75;;
11197;SDS011;5655;48.744;9.162;2022-08-23T09:59:59;3.33;;;1.88;;
11197;SDS011;5655;48.744;9.162;2022-08-23T10:02:41;3.05;;;1.65;;
11197;SDS011;5655;48.744;9.162;2022-08-23T10:05:18;3.10;;;1.65;;
11197;SDS011;5655;48.744;9.162;2022-08-23T10:08:04;1.95;;;1.63;;
11197;SDS011;5655;48.744;9.162;2022-08-23T10:12:55;4.50;;;1.63;;
11197;SDS011;5655;48.744;9.162;2022-08-23T10:15:24;3.42;;;1.80;;
11197;SDS011;5655;48.744;9.162;2022-08-23T10:18:06;4.68;;;1.50;;
11197;SDS011;5655;48.744;9.162;2022-08-23T10:20:42;3.95;;;2.17;;
11197;SDS011;5655;48.744;9.162;2022-08-23T10:25:59;2.15;;;1.52;;
11197;SDS011;5655;48.744;9.162;2022-08-23T10:36:53;2.50;;;1.75;;
11197;SDS011;5655;48.744;9.162;2022-08-23T10:39:45;3.33;;;1.80;;
11197;SDS011;5655;48.744;9.162;2022-08-23T10:42:41;3.15;;;1.85;;
11197;SDS011;5655;48.744;9.162;2022-08-23T10:45:19;4.05;;;1.85;;
11197;SDS011;5655;48.744;9.162;2022-08-23T10:47:55;3.97;;;2.03;;
11197;SDS011;5655;48.744;9.162;2022-08-23T10:50:32;3.40;;;1.70;;
11197;SDS011;5655;48.744;9.162;2022-08-23T10:53:25;2.58;;;1.48;;
11197;SDS011;5655;48.744;9.162;2022-08-23T10:55:58;6.55;;;2.17;;
11197;SDS011;5655;48.744;9.162;2022-08-23T10:58:51;6.45;;;2.15;;
11197;SDS011;5655;48.744;9.162;2022-08-23T11:01:34;3.92;;;1.63;;
11197;SDS011;5655;48.744;9.162;2022-08-23T11:04:24;5.32;;;1.75;;
11197;SDS011;5655;48.744;9.162;2022-08-23T11:06:51;3.88;;;1.77;;
11197;SDS011;5655;48.744;9.162;2022-08-23T11:11:45;2.15;;;1.52;;
11197;SDS011;5655;48.744;9.162;2022-08-23T11:17:06;3.42;;;1.80;;
11197;SDS011;5655;48.744;9.162;2022-08-23T11:22:26;3.65;;;1.67;;
11197;SDS011;5655;48.744;9.162;2022-08-23T11:24:55;3.58;;;1.65;;
11197;SDS011;5655;48.744;9.162;2022-08-23T11:27:25;2.83;;;1.63;;
11197;SDS011;5655;48.744;9.162;2022-08-23T11:35:42;2.78;;;1.40;;
11197;SDS011;5655;48.744;9.162;2022-08-23T11:38:11;1.77;;;1.40;;
11197;SDS011;5655;48.744;9.162;2022-08-23T11:40:59;2.58;;;1.65;;
11197;SDS011;5655;48.744;9.162;2022-08-23T11:43:34;1.70;;;1.33;;
11197;SDS011;5655;48.744;9.162;2022-08-23T11:49:13;3.58;;;1.80;;
11197;SDS011;5655;48.744;9.162;2022-08-23T11:52:10;3.88;;;1.90;;
11197;SDS011;5655;48.744;9.162;2022-08-23T12:06:54;2.67;;;1.55;;
11197;SDS011;5655;48.744;9.162;2022-08-23T12:17:00;4.93;;;1.73;;
11197;SDS011;5655;48.744;9.162;2022-08-23T12:19:36;2.90;;;1.60;;
11197;SDS011;5655;48.744;9.162;2022-08-23T12:22:07;4.88;;;1.80;;
11197;SDS011;5655;48.744;9.162;2022-08-23T12:24:43;4.55;;;1.70;;
11197;SDS011;5655;48.744;9.162;2022-08-23T12:35:42;1.85;;;1.63;;
11197;SDS011;5655;48.744;9.162;2022-08-23T12:41:28;3.30;;;1.58;;
11197;SDS011;5655;48.744;9.162;2022-08-23T12:44:03;3.15;;;1.65;;
11197;SDS011;5655;48.744;9.162;2022-08-23T12:46:41;2.85;;;1.77;;
11197;SDS011;5655;48.744;9.162;2022-08-23T12:49:09;4.03;;;1.60;;
11197;SDS011;5655;48.744;9.162;2022-08-23T12:51:50;2.70;;;2.22;;
11197;SDS011;5655;48.744;9.162;2022-08-23T12:54:31;1.70;;;1.60;;
11197;SDS011;5655;48.744;9.162;2022-08-23T12:57:02;1.88;;;1.50;;
11197;SDS011;5655;48.744;9.162;2022-08-23T12:59:36;2.55;;;1.50;;
11197;SDS011;5655;48.744;9.162;2022-08-23T13:02:07;2.78;;;1.77;;
11197;SDS011;5655;48.744;9.162;2022-08-23T13:04:36;3.33;;;1.80;;
11197;SDS011;5655;48.744;9.162;2022-08-23T13:07:04;3.03;;;1.80;;
11197;SDS011;5655;48.744;9.162;2022-08-23T13:09:36;2.17;;;1.55;;
11197;SDS011;5655;48.744;9.162;2022-08-23T13:12:05;2.88;;;1.80;;
11197;SDS011;5655;48.744;9.162;2022-08-23T13:19:41;3.33;;;2.30;;
11197;SDS011;5655;48.744;9.162;2022-08-23T13:22:29;3.15;;;1.70;;
11197;SDS011;5655;48.744;9.162;2022-08-23T13:32:44;2.42;;;1.60;;
11197;SDS011;5655;48.744;9.162;2022-08-23T13:40:31;4.28;;;2.22;;
11197;SDS011;5655;48.744;9.162;2022-08-23T13:43:04;2.03;;;1.80;;
11197;SDS011;5655;48.744;9.162;2022-08-23T13:45:34;3.47;;;1.60;;
11197;SDS011;5655;48.744;9.162;2022-08-23T13:48:11;2.50;;;1.80;;
11197;SDS011;5655;48.744;9.162;2022-08-23T13:50:42;3.83;;;1.40;;
11197;SDS011;5655;48.744;9.162;2022-08-23T13:53:09;5.38;;;1.92;;
11197;SDS011;5655;48.744;9.162;2022-08-23T13:55:38;3.85;;;1.55;;
11197;SDS011;5655;48.744;9.162;2022-08-23T13:58:10;3.17;;;1.80;;
11197;SDS011;5655;48.744;9.162;2022-08-23T14:00:38;3.58;;;1.73;;
11197;SDS011;5655;48.744;9.162;2022-08-23T14:03:04;3.10;;;1.80;;
11197;SDS011;5655;48.744;9.162;2022-08-23T14:05:30;2.67;;;1.67;;
11197;SDS011;5655;48.744;9.162;2022-08-23T14:07:55;2.00;;;1.80;;
11197;SDS011;5655;48.744;9.162;2022-08-23T14:10:21;6.03;;;1.98;;
11197;SDS011;5655;48.744;9.162;2022-08-23T14:12:48;1.98;;;1.88;;
11197;SDS011;5655;48.744;9.162;2022-08-23T14:15:16;2.80;;;1.90;;
11197;SDS011;5655;48.744;9.162;2022-08-23T14:17:42;3.47;;;1.92;;
11197;SDS011;5655;48.744;9.162;2022-08-23T14:20:11;5.88;;;2.28;;
11197;SDS011;5655;48.744;9.162;2022-08-23T14:22:40;3.28;;;2.00;;
11197;SDS011;5655;48.744;9.162;2022-08-23T14:25:05;3.08;;;1.45;;
11197;SDS011;5655;48.744;9.162;2022-08-23T14:27:32;5.13;;;1.70;;
11197;SDS011;5655;48.744;9.162;2022-08-23T14:29:57;2.90;;;1.80;;
11197;SDS011;5655;48.744;9.162;2022-08-23T14:32:23;2.03;;;1.45;;
11197;SDS011;5655;48.744;9.162;2022-08-23T14:34:48;1.80;;;1.70;;
11197;SDS011;5655;48.744;9.162;2022-08-23T14:37:14;1.80;;;1.60;;
11197;SDS011;5655;48.744;9.162;2022-08-23T14:39:39;4.50;;;1.90;;
11197;SDS011;5655;48.744;9.162;2022-08-23T14:42:05;5.13;;;1.98;;
11197;SDS011;5655;48.744;9.162;2022-08-23T14:44:31;3.03;;;2.00;;
11197;SDS011;5655;48.744;9.162;2022-08-23T14:46:57;4.57;;;2.03;;
11197;SDS011;5655;48.744;9.162;2022-08-23T14:49:22;2.22;;;1.70;;
11197;SDS011;5655;48.744;9.162;2022-08-23T14:51:47;2.33;;;1.67;;
11197;SDS011;5655;48.744;9.162;2022-08-23T14:54:16;2.50;;;1.75;;
11197;SDS011;5655;48.744;9.162;2022-08-23T14:56:44;2.60;;;2.00;;
11197;SDS011;5655;48.744;9.162;2022-08-23T14:59:09;2.15;;;1.67;;
11197;SDS011;5655;48.744;9.162;2022-08-23T15:01:36;3.17;;;2.00;;
11197;SDS011;5655;48.744;9.162;2022-08-23T15:04:02;1.88;;;1.50;;
11197;SDS011;5655;48.744;9.162;2022-08-23T15:06:27;4.40;;;2.15;;
11197;SDS011;5655;48.744;9.162;2022-08-23T15:08:53;3.08;;;2.00;;
11197;SDS011;5655;48.744;9.162;2022-08-23T15:11:19;5.07;;;2.28;;
11197;SDS011;5655;48.744;9.162;2022-08-23T15:13:44;2.30;;;1.80;;
11197;SDS011;5655;48.744;9.162;2022-08-23T15:16:11;4.18;;;2.10;;
11197;SDS011;5655;48.744;9.162;2022-08-23T15:18:39;2.50;;;2.05;;
11197;SDS011;5655;48.744;9.162;2022-08-23T15:21:09;4.25;;;1.90;;
11197;SDS011;5655;48.744;9.162;2022-08-23T15:23:34;2.58;;;1.88;;
11197;SDS011;5655;48.744;9.162;2022-08-23T15:26:00;2.47;;;1.65;;
11197;SDS011;5655;48.744;9.162;2022-08-23T15:28:25;2.22;;;1.73;;
11197;SDS011;5655;48.744;9.162;2022-08-23T15:30:51;3.45;;;1.92;;
11197;SDS011;5655;48.744;9.162;2022-08-23T15:33:17;3.03;;;1.88;;
11197;SDS011;5655;48.744;9.162;2022-08-23T15:35:44;3.63;;;2.03;;
11197;SDS011;5655;48.744;9.162;2022-08-23T15:38:13;3.35;;;1.83;;
11197;SDS011;5655;48.744;9.162;2022-08-23T15:40:39;4.43;;;2.00;;
11197;SDS011;5655;48.744;9.162;2022-08-23T15:43:05;3.80;;;2.10;;
11197;SDS011;5655;48.744;9.162;2022-08-23T15:45:31;2.65;;;1.70;;
11197;SDS011;5655;48.744;9.162;2022-08-23T15:47:58;2.80;;;1.90;;
11197;SDS011;5655;48.744;9.162;2022-08-23T15:50:26;2.40;;;1.98;;
11197;SDS011;5655;48.744;9.162;2022-08-23T15:52:55;4.40;;;1.83;;
11197;SDS011;5655;48.744;9.162;2022-08-23T15:55:21;2.90;;;1.90;;
11197;SDS011;5655;48.744;9.162;2022-08-23T15:57:47;6.22;;;1.92;;
11197;SDS011;5655;48.744;9.162;2022-08-23T16:00:16;3.53;;;1.58;;
11197;SDS011;5655;48.744;9.162;2022-08-23T16:02:45;2.65;;;1.90;;
11197;SDS011;5655;48.744;9.162;2022-08-23T16:05:11;3.55;;;1.80;;
11197;SDS011;5655;48.744;9.162;2022-08-23T16:07:36;3.40;;;1.75;;
11197;SDS011;5655;48.744;9.162;2022-08-23T16:10:05;2.50;;;1.90;;
11197;SDS011;5655;48.744;9.162;2022-08-23T16:12:32;3.83;;;1.90;;
11197;SDS011;5655;48.744;9.162;2022-08-23T16:14:57;2.13;;;1.70;;
11197;SDS011;5655;48.744;9.162;2022-08-23T16:17:22;4.85;;;1.80;;
11197;SDS011;5655;48.744;9.162;2022-08-23T16:19:49;2.45;;;1.90;;
11197;SDS011;5655;48.744;9.162;2022-08-23T16:22:14;2.80;;;2.00;;
11197;SDS011;5655;48.744;9.162;2022-08-23T16:24:40;3.03;;;1.83;;
11197;SDS011;5655;48.744;9.162;2022-08-23T16:27:05;2.08;;;1.73;;
11197;SDS011;5655;48.744;9.162;2022-08-23T16:29:32;3.58;;;1.92;;
11197;SDS011;5655;48.744;9.162;2022-08-23T16:32:00;2.03;;;1.80;;
11197;SDS011;5655;48.744;9.162;2022-08-23T16:34:29;2.40;;;1.75;;
11197;SDS011;5655;48.744;9.162;2022-08-23T16:36:56;3.53;;;2.20;;
11197;SDS011;5655;48.744;9.162;2022-08-23T16:39:23;3.20;;;1.98;;
11197;SDS011;5655;48.744;9.162;2022-08-23T16:41:49;4.15;;;1.90;;
11197;SDS011;5655;48.744;9.162;2022-08-23T16:44:14;1.85;;;1.63;;
11197;SDS011;5655;48.744;9.162;2022-08-23T16:46:40;3.78;;;1.98;;
11197;SDS011;5655;48.744;9.162;2022-08-23T16:49:08;3.90;;;2.05;;
11197;SDS011;5655;48.744;9.162;2022-08-23T16:51:34;2.85;;;2.03;;
11197;SDS011;5655;48.744;9.162;2022-08-23T16:54:00;4.22;;;2.38;;
11197;SDS011;5655;48.744;9.162;2022-08-23T16:56:26;7.65;;;1.95;;